sensor_id;sensor_type;location;lat;lon;timestamp;pressure;altitude;pressure_sealevel;temperature;humidity
61618;BME280;47518;51.776;9.370;2023-06-24T00:01:38;101133.59;;;15.40;90.10
61618;BME280;47518;51.776;9.370;2023-06-24T00:04:03;101135.94;;;15.43;89.41
61618;BME280;47518;51.776;9.370;2023-06-24T00:06:29;101137.25;;;15.47;88.34
61618;BME280;47518;51.776;9.370;2023-06-24T00:08:54;101129.44;;;15.44;88.51
61618;BME280;47518;51.776;9.370;2023-06-24T00:11:28;101124.41;;;15.48;88.16
61618;BME280;47518;51.776;9.370;2023-06-24T00:13:53;101129.50;;;15.36;88.06
61618;BME280;47518;51.776;9.370;2023-06-24T00:16:19;101130.53;;;15.21;89.18
61618;BME280;47518;51.776;9.370;2023-06-24T00:18:51;101131.28;;;15.14;89.98
61618;BME280;47518;51.776;9.370;2023-06-24T00:21:18;101128.28;;;15.24;89.58
61618;BME280;47518;51.776;9.370;2023-06-24T00:23:44;101131.28;;;15.14;89.69
61618;BME280;47518;51.776;9.370;2023-06-24T00:26:09;101141.59;;;15.27;88.61
61618;BME280;47518;51.776;9.370;2023-06-24T00:28:35;101137.94;;;15.35;87.94
61618;BME280;47518;51.776;9.370;2023-06-24T00:31:01;101139.81;;;15.20;89.23
61618;BME280;47518;51.776;9.370;2023-06-24T00:33:28;101138.19;;;15.25;88.30
61618;BME280;47518;51.776;9.370;2023-06-24T00:35:53;101139.94;;;15.03;88.69
61618;BME280;47518;51.776;9.370;2023-06-24T00:38:19;101139.28;;;15.01;89.28
61618;BME280;47518;51.776;9.370;2023-06-24T00:40:45;101137.78;;;14.99;89.20
61618;BME280;47518;51.776;9.370;2023-06-24T00:43:11;101135.44;;;15.10;88.38
61618;BME280;47518;51.776;9.370;2023-06-24T00:45:37;101142.88;;;15.02;89.22
61618;BME280;47518;51.776;9.370;2023-06-24T00:48:02;101132.50;;;14.97;89.07
61618;BME280;47518;51.776;9.370;2023-06-24T00:50:28;101142.91;;;14.79;90.32
61618;BME280;47518;51.776;9.370;2023-06-24T00:52:53;101140.72;;;14.74;90.49
61618;BME280;47518;51.776;9.370;2023-06-24T00:55:19;101139.84;;;14.97;89.38
61618;BME280;47518;51.776;9.370;2023-06-24T00:57:49;101136.75;;;14.77;89.29
61618;BME280;47518;51.776;9.370;2023-06-24T01:00:18;101144.97;;;14.77;89.73
61618;BME280;47518;51.776;9.370;2023-06-24T01:02:46;101146.44;;;14.87;88.54
61618;BME280;47518;51.776;9.370;2023-06-24T01:05:12;101146.22;;;14.74;89.83
61618;BME280;47518;51.776;9.370;2023-06-24T01:07:38;101155.38;;;14.81;89.25
61618;BME280;47518;51.776;9.370;2023-06-24T01:10:04;101147.13;;;14.67;88.74
61618;BME280;47518;51.776;9.370;2023-06-24T01:12:36;101152.16;;;14.55;90.46
61618;BME280;47518;51.776;9.370;2023-06-24T01:15:05;101148.19;;;14.57;90.02
61618;BME280;47518;51.776;9.370;2023-06-24T01:17:38;101149.84;;;14.67;89.93
61618;BME280;47518;51.776;9.370;2023-06-24T01:29:20;101154.38;;;14.59;90.24
61618;BME280;47518;51.776;9.370;2023-06-24T01:32:07;101157.63;;;14.55;90.61
61618;BME280;47518;51.776;9.370;2023-06-24T01:34:45;101152.06;;;14.48;90.35
61618;BME280;47518;51.776;9.370;2023-06-24T01:42:35;101155.88;;;14.62;87.00
61618;BME280;47518;51.776;9.370;2023-06-24T01:45:02;101155.38;;;14.58;88.04
61618;BME280;47518;51.776;9.370;2023-06-24T01:47:29;101155.44;;;14.50;88.41
61618;BME280;47518;51.776;9.370;2023-06-24T01:49:57;101159.06;;;14.43;88.78
61618;BME280;47518;51.776;9.370;2023-06-24T01:52:25;101155.38;;;14.58;88.33
61618;BME280;47518;51.776;9.370;2023-06-24T01:54:55;101152.41;;;14.45;88.88
61618;BME280;47518;51.776;9.370;2023-06-24T01:57:22;101159.94;;;14.35;87.98
61618;BME280;47518;51.776;9.370;2023-06-24T01:59:49;101149.66;;;14.14;90.14
61618;BME280;47518;51.776;9.370;2023-06-24T02:02:17;101159.38;;;14.17;89.64
61618;BME280;47518;51.776;9.370;2023-06-24T02:04:45;101157.50;;;14.17;89.12
61618;BME280;47518;51.776;9.370;2023-06-24T02:07:11;101160.97;;;14.34;88.05
61618;BME280;47518;51.776;9.370;2023-06-24T02:09:38;101153.03;;;14.24;87.84
61618;BME280;47518;51.776;9.370;2023-06-24T02:12:05;101153.34;;;14.29;88.42
61618;BME280;47518;51.776;9.370;2023-06-24T02:14:31;101155.19;;;14.06;89.55
61618;BME280;47518;51.776;9.370;2023-06-24T02:17:03;101152.81;;;14.03;89.70
61618;BME280;47518;51.776;9.370;2023-06-24T02:19:30;101149.03;;;14.04;89.45
61618;BME280;47518;51.776;9.370;2023-06-24T02:21:58;101148.97;;;13.81;89.73
61618;BME280;47518;51.776;9.370;2023-06-24T02:24:25;101145.09;;;14.07;88.77
61618;BME280;47518;51.776;9.370;2023-06-24T02:26:53;101141.94;;;14.18;89.05
61618;BME280;47518;51.776;9.370;2023-06-24T02:29:19;101143.75;;;14.02;88.67
61618;BME280;47518;51.776;9.370;2023-06-24T02:31:45;101148.22;;;13.95;89.73
61618;BME280;47518;51.776;9.370;2023-06-24T02:34:10;101149.22;;;14.02;89.19
61618;BME280;47518;51.776;9.370;2023-06-24T02:36:36;101162.63;;;13.89;88.92
61618;BME280;47518;51.776;9.370;2023-06-24T02:39:01;101162.47;;;13.83;89.77
61618;BME280;47518;51.776;9.370;2023-06-24T02:41:27;101161.72;;;13.89;89.75
61618;BME280;47518;51.776;9.370;2023-06-24T02:43:53;101162.63;;;13.89;89.38
61618;BME280;47518;51.776;9.370;2023-06-24T02:46:19;101161.88;;;13.95;88.84
61618;BME280;47518;51.776;9.370;2023-06-24T02:48:53;101164.84;;;13.86;89.07
61618;BME280;47518;51.776;9.370;2023-06-24T02:51:19;101168.78;;;13.83;89.24
61618;BME280;47518;51.776;9.370;2023-06-24T02:53:48;101170.63;;;13.91;89.05
61618;BME280;47518;51.776;9.370;2023-06-24T02:56:15;101171.66;;;13.90;88.66
61618;BME280;47518;51.776;9.370;2023-06-24T02:58:45;101173.56;;;13.89;88.77
61618;BME280;47518;51.776;9.370;2023-06-24T03:01:11;101169.69;;;14.07;87.24
61618;BME280;47518;51.776;9.370;2023-06-24T03:03:37;101171.94;;;14.03;87.37
61618;BME280;47518;51.776;9.370;2023-06-24T03:06:03;101174.69;;;14.03;87.89
61618;BME280;47518;51.776;9.370;2023-06-24T03:08:29;101181.66;;;14.06;87.41
61618;BME280;47518;51.776;9.370;2023-06-24T03:10:54;101171.97;;;13.95;88.03
61618;BME280;47518;51.776;9.370;2023-06-24T03:13:20;101175.47;;;13.72;89.55
61618;BME280;47518;51.776;9.370;2023-06-24T03:15:46;101183.69;;;13.64;90.13
61618;BME280;47518;51.776;9.370;2023-06-24T03:18:11;101173.78;;;13.71;89.83
61618;BME280;47518;51.776;9.370;2023-06-24T03:20:37;101181.22;;;13.86;88.90
61618;BME280;47518;51.776;9.370;2023-06-24T03:23:05;101194.31;;;13.98;88.89
61618;BME280;47518;51.776;9.370;2023-06-24T03:25:31;101186.31;;;13.97;87.92
61618;BME280;47518;51.776;9.370;2023-06-24T03:27:56;101189.81;;;13.75;88.47
61618;BME280;47518;51.776;9.370;2023-06-24T03:30:22;101196.97;;;13.84;88.39
61618;BME280;47518;51.776;9.370;2023-06-24T03:32:47;101196.03;;;13.99;87.91
61618;BME280;47518;51.776;9.370;2023-06-24T03:35:15;101192.69;;;13.89;88.81
61618;BME280;47518;51.776;9.370;2023-06-24T03:37:40;101197.13;;;13.90;89.12
61618;BME280;47518;51.776;9.370;2023-06-24T03:40:06;101190.34;;;13.78;89.33
61618;BME280;47518;51.776;9.370;2023-06-24T03:42:32;101194.44;;;13.74;90.25
61618;BME280;47518;51.776;9.370;2023-06-24T03:44:57;101191.69;;;13.74;89.70
61618;BME280;47518;51.776;9.370;2023-06-24T03:47:23;101184.63;;;13.88;88.64
61618;BME280;47518;51.776;9.370;2023-06-24T03:49:48;101197.81;;;13.76;89.01
61618;BME280;47518;51.776;9.370;2023-06-24T03:52:13;101191.94;;;13.56;89.94
61618;BME280;47518;51.776;9.370;2023-06-24T03:54:38;101188.34;;;13.56;90.45
61618;BME280;47518;51.776;9.370;2023-06-24T03:57:06;101186.22;;;13.74;89.28
61618;BME280;47518;51.776;9.370;2023-06-24T03:59:32;101192.75;;;13.65;89.77
61618;BME280;47518;51.776;9.370;2023-06-24T04:01:58;101193.56;;;13.73;89.12
61618;BME280;47518;51.776;9.370;2023-06-24T04:04:23;101193.34;;;13.91;88.85
61618;BME280;47518;51.776;9.370;2023-06-24T04:06:48;101199.09;;;14.05;87.77
61618;BME280;47518;51.776;9.370;2023-06-24T04:09:14;101194.22;;;14.23;86.63
61618;BME280;47518;51.776;9.370;2023-06-24T04:11:39;101193.88;;;14.26;87.45
61618;BME280;47518;51.776;9.370;2023-06-24T04:14:04;101192.72;;;14.43;88.00
61618;BME280;47518;51.776;9.370;2023-06-24T04:16:32;101189.00;;;14.44;88.75
61618;BME280;47518;51.776;9.370;2023-06-24T04:18:57;101188.28;;;14.50;88.86
61618;BME280;47518;51.776;9.370;2023-06-24T04:21:25;101190.25;;;14.65;89.13
61618;BME280;47518;51.776;9.370;2023-06-24T04:23:51;101182.44;;;14.76;88.99
61618;BME280;47518;51.776;9.370;2023-06-24T04:26:16;101187.50;;;14.87;87.91
61618;BME280;47518;51.776;9.370;2023-06-24T04:28:42;101190.09;;;14.58;90.50
61618;BME280;47518;51.776;9.370;2023-06-24T04:31:07;101192.50;;;14.61;88.86
61618;BME280;47518;51.776;9.370;2023-06-24T04:33:32;101190.78;;;14.60;88.15
61618;BME280;47518;51.776;9.370;2023-06-24T04:35:58;101201.97;;;14.42;88.43
61618;BME280;47518;51.776;9.370;2023-06-24T04:38:25;101201.34;;;14.32;89.46
61618;BME280;47518;51.776;9.370;2023-06-24T04:40:50;101201.81;;;14.13;91.27
61618;BME280;47518;51.776;9.370;2023-06-24T04:43:16;101198.81;;;14.22;91.87
61618;BME280;47518;51.776;9.370;2023-06-24T04:45:41;101198.81;;;14.62;90.38
61618;BME280;47518;51.776;9.370;2023-06-24T04:48:06;101206.91;;;14.78;89.16
61618;BME280;47518;51.776;9.370;2023-06-24T04:50:32;101210.84;;;14.75;90.38
61618;BME280;47518;51.776;9.370;2023-06-24T04:52:57;101209.25;;;15.04;89.81
61618;BME280;47518;51.776;9.370;2023-06-24T04:55:23;101204.31;;;15.22;89.20
61618;BME280;47518;51.776;9.370;2023-06-24T04:57:48;101210.75;;;15.29;89.07
61618;BME280;47518;51.776;9.370;2023-06-24T05:00:14;101207.06;;;15.37;87.67
61618;BME280;47518;51.776;9.370;2023-06-24T05:02:39;101201.59;;;15.37;86.80
61618;BME280;47518;51.776;9.370;2023-06-24T05:05:05;101208.78;;;15.38;87.57
61618;BME280;47518;51.776;9.370;2023-06-24T05:07:30;101205.97;;;15.46;87.50
61618;BME280;47518;51.776;9.370;2023-06-24T05:09:56;101205.16;;;15.60;86.82
61618;BME280;47518;51.776;9.370;2023-06-24T05:12:21;101209.81;;;15.37;87.03
61618;BME280;47518;51.776;9.370;2023-06-24T05:14:54;101217.97;;;15.45;88.46
61618;BME280;47518;51.776;9.370;2023-06-24T05:17:19;101219.53;;;15.62;87.91
61618;BME280;47518;51.776;9.370;2023-06-24T05:19:45;101218.19;;;15.73;88.22
61618;BME280;47518;51.776;9.370;2023-06-24T05:22:13;101216.31;;;15.73;88.29
61618;BME280;47518;51.776;9.370;2023-06-24T05:24:39;101223.53;;;15.74;88.38
61618;BME280;47518;51.776;9.370;2023-06-24T05:27:06;101221.91;;;15.80;88.60
61618;BME280;47518;51.776;9.370;2023-06-24T05:29:33;101222.84;;;15.72;88.51
61618;BME280;47518;51.776;9.370;2023-06-24T05:31:58;101228.53;;;16.00;86.64
61618;BME280;47518;51.776;9.370;2023-06-24T05:34:24;101231.63;;;15.97;86.78
61618;BME280;47518;51.776;9.370;2023-06-24T05:36:50;101224.66;;;16.10;86.47
61618;BME280;47518;51.776;9.370;2023-06-24T05:39:15;101225.03;;;15.92;86.53
61618;BME280;47518;51.776;9.370;2023-06-24T05:41:40;101220.31;;;16.00;87.06
61618;BME280;47518;51.776;9.370;2023-06-24T05:44:07;101222.94;;;16.09;87.14
61618;BME280;47518;51.776;9.370;2023-06-24T05:46:34;101221.91;;;15.95;87.22
61618;BME280;47518;51.776;9.370;2023-06-24T05:48:59;101228.69;;;16.28;86.42
61618;BME280;47518;51.776;9.370;2023-06-24T05:51:24;101227.38;;;16.60;85.12
61618;BME280;47518;51.776;9.370;2023-06-24T05:53:50;101227.34;;;16.75;84.74
61618;BME280;47518;51.776;9.370;2023-06-24T05:56:15;101228.94;;;16.84;85.44
61618;BME280;47518;51.776;9.370;2023-06-24T05:58:41;101229.59;;;17.08;84.31
61618;BME280;47518;51.776;9.370;2023-06-24T06:01:09;101220.50;;;17.29;84.46
61618;BME280;47518;51.776;9.370;2023-06-24T06:03:34;101229.91;;;17.47;84.31
61618;BME280;47518;51.776;9.370;2023-06-24T06:05:59;101224.56;;;17.67;83.73
61618;BME280;47518;51.776;9.370;2023-06-24T06:08:25;101220.81;;;18.03;82.41
61618;BME280;47518;51.776;9.370;2023-06-24T06:25:20;101219.81;;;18.17;83.77
61618;BME280;47518;51.776;9.370;2023-06-24T06:27:45;101219.75;;;18.45;83.00
61618;BME280;47518;51.776;9.370;2023-06-24T06:30:11;101216.28;;;18.78;80.77
61618;BME280;47518;51.776;9.370;2023-06-24T06:32:37;101213.13;;;19.07;78.66
61618;BME280;47518;51.776;9.370;2023-06-24T06:35:03;101216.09;;;18.99;76.65
61618;BME280;47518;51.776;9.370;2023-06-24T06:37:28;101214.41;;;19.44;75.93
61618;BME280;47518;51.776;9.370;2023-06-24T06:39:53;101210.81;;;19.64;74.22
61618;BME280;47518;51.776;9.370;2023-06-24T06:42:19;101220.13;;;19.83;71.72
61618;BME280;47518;51.776;9.370;2023-06-24T06:44:44;101219.25;;;19.89;72.33
61618;BME280;47518;51.776;9.370;2023-06-24T06:47:10;101228.09;;;20.10;71.47
61618;BME280;47518;51.776;9.370;2023-06-24T06:49:36;101229.78;;;20.18;71.49
61618;BME280;47518;51.776;9.370;2023-06-24T06:52:01;101221.75;;;20.10;71.46
61618;BME280;47518;51.776;9.370;2023-06-24T06:54:26;101228.88;;;20.37;69.39
61618;BME280;47518;51.776;9.370;2023-06-24T06:56:52;101228.88;;;20.44;70.96
61618;BME280;47518;51.776;9.370;2023-06-24T06:59:17;101216.31;;;20.48;70.50
61618;BME280;47518;51.776;9.370;2023-06-24T07:01:45;101213.28;;;20.63;70.14
61618;BME280;47518;51.776;9.370;2023-06-24T07:04:13;101211.72;;;20.74;68.71
61618;BME280;47518;51.776;9.370;2023-06-24T07:06:38;101211.19;;;20.90;67.65
61618;BME280;47518;51.776;9.370;2023-06-24T07:09:04;101211.47;;;21.07;66.92
61618;BME280;47518;51.776;9.370;2023-06-24T07:11:29;101212.06;;;21.15;67.88
61618;BME280;47518;51.776;9.370;2023-06-24T07:13:57;101217.31;;;21.23;66.67
61618;BME280;47518;51.776;9.370;2023-06-24T07:16:23;101209.56;;;21.39;66.73
61618;BME280;47518;51.776;9.370;2023-06-24T07:18:48;101212.63;;;21.55;66.42
61618;BME280;47518;51.776;9.370;2023-06-24T07:21:13;101211.88;;;21.67;65.72
61618;BME280;47518;51.776;9.370;2023-06-24T07:23:45;101215.94;;;21.82;64.58
61618;BME280;47518;51.776;9.370;2023-06-24T07:26:11;101217.84;;;21.64;66.86
61618;BME280;47518;51.776;9.370;2023-06-24T07:28:36;101218.97;;;21.81;64.80
61618;BME280;47518;51.776;9.370;2023-06-24T07:31:01;101214.97;;;21.77;64.59
61618;BME280;47518;51.776;9.370;2023-06-24T07:33:27;101209.06;;;21.92;65.23
61618;BME280;47518;51.776;9.370;2023-06-24T07:35:53;101216.00;;;21.76;66.09
61618;BME280;47518;51.776;9.370;2023-06-24T07:38:18;101217.78;;;22.13;66.42
61618;BME280;47518;51.776;9.370;2023-06-24T07:40:44;101211.31;;;22.20;63.30
61618;BME280;47518;51.776;9.370;2023-06-24T07:43:09;101214.91;;;22.38;60.28
61618;BME280;47518;51.776;9.370;2023-06-24T07:45:34;101206.38;;;22.40;62.26
61618;BME280;47518;51.776;9.370;2023-06-24T07:47:59;101214.75;;;22.33;60.69
61618;BME280;47518;51.776;9.370;2023-06-24T07:50:25;101210.16;;;22.57;61.21
61618;BME280;47518;51.776;9.370;2023-06-24T07:52:50;101204.63;;;22.57;61.42
61618;BME280;47518;51.776;9.370;2023-06-24T07:55:15;101206.44;;;22.52;57.90
61618;BME280;47518;51.776;9.370;2023-06-24T07:57:45;101199.81;;;22.83;60.66
61618;BME280;47518;51.776;9.370;2023-06-24T08:00:11;101201.56;;;22.95;58.88
61618;BME280;47518;51.776;9.370;2023-06-24T08:02:36;101199.50;;;23.03;56.91
61618;BME280;47518;51.776;9.370;2023-06-24T08:05:02;101198.09;;;23.12;59.27
61618;BME280;47518;51.776;9.370;2023-06-24T08:07:27;101195.34;;;23.23;57.89
61618;BME280;47518;51.776;9.370;2023-06-24T08:09:53;101199.97;;;23.41;53.78
61618;BME280;47518;51.776;9.370;2023-06-24T08:12:18;101206.59;;;23.28;54.02
61618;BME280;47518;51.776;9.370;2023-06-24T08:14:43;101203.38;;;23.02;56.04
61618;BME280;47518;51.776;9.370;2023-06-24T08:17:09;101206.91;;;22.49;55.91
61618;BME280;47518;51.776;9.370;2023-06-24T08:19:34;101216.09;;;21.88;56.77
61618;BME280;47518;51.776;9.370;2023-06-24T08:21:59;101225.16;;;22.20;57.44
61618;BME280;47518;51.776;9.370;2023-06-24T08:24:25;101205.63;;;22.63;57.45
61618;BME280;47518;51.776;9.370;2023-06-24T08:26:50;101210.16;;;23.06;56.04
61618;BME280;47518;51.776;9.370;2023-06-24T08:29:16;101202.84;;;23.35;53.95
61618;BME280;47518;51.776;9.370;2023-06-24T08:31:41;101210.31;;;23.22;56.79
61618;BME280;47518;51.776;9.370;2023-06-24T08:34:06;101211.66;;;23.32;55.20
61618;BME280;47518;51.776;9.370;2023-06-24T08:36:36;101199.72;;;23.43;54.86
61618;BME280;47518;51.776;9.370;2023-06-24T08:39:02;101201.63;;;23.31;55.50
61618;BME280;47518;51.776;9.370;2023-06-24T08:41:28;101202.88;;;22.45;56.82
61618;BME280;47518;51.776;9.370;2023-06-24T08:43:53;101201.25;;;22.55;56.21
61618;BME280;47518;51.776;9.370;2023-06-24T08:46:20;101197.72;;;23.08;56.14
61618;BME280;47518;51.776;9.370;2023-06-24T08:48:48;101201.31;;;22.67;57.36
61618;BME280;47518;51.776;9.370;2023-06-24T08:51:14;101193.88;;;23.09;56.25
61618;BME280;47518;51.776;9.370;2023-06-24T08:53:43;101189.81;;;23.47;56.79
61618;BME280;47518;51.776;9.370;2023-06-24T08:56:09;101191.69;;;23.11;57.38
61618;BME280;47518;51.776;9.370;2023-06-24T08:58:35;101194.72;;;22.80;57.48
61618;BME280;47518;51.776;9.370;2023-06-24T09:01:02;101190.41;;;23.37;58.05
61618;BME280;47518;51.776;9.370;2023-06-24T09:03:27;101194.53;;;23.46;55.66
61618;BME280;47518;51.776;9.370;2023-06-24T09:05:53;101186.81;;;23.83;54.49
61618;BME280;47518;51.776;9.370;2023-06-24T09:08:18;101183.38;;;24.16;55.41
61618;BME280;47518;51.776;9.370;2023-06-24T09:10:52;101189.00;;;23.58;54.18
61618;BME280;47518;51.776;9.370;2023-06-24T09:13:18;101178.44;;;24.07;54.33
61618;BME280;47518;51.776;9.370;2023-06-24T09:15:43;101180.81;;;24.38;53.45
61618;BME280;47518;51.776;9.370;2023-06-24T09:18:09;101187.88;;;23.24;55.51
61618;BME280;47518;51.776;9.370;2023-06-24T09:20:41;101183.81;;;23.85;54.66
61618;BME280;47518;51.776;9.370;2023-06-24T09:23:09;101181.34;;;24.12;55.44
61618;BME280;47518;51.776;9.370;2023-06-24T09:25:35;101177.78;;;24.40;54.76
61618;BME280;47518;51.776;9.370;2023-06-24T09:28:01;101171.00;;;23.84;54.28
61618;BME280;47518;51.776;9.370;2023-06-24T09:30:27;101174.78;;;24.18;54.66
61618;BME280;47518;51.776;9.370;2023-06-24T09:32:52;101177.53;;;24.30;52.75
61618;BME280;47518;51.776;9.370;2023-06-24T09:35:21;101175.34;;;24.72;52.68
61618;BME280;47518;51.776;9.370;2023-06-24T09:37:49;101171.16;;;24.86;50.48
61618;BME280;47518;51.776;9.370;2023-06-24T09:40:15;101178.91;;;25.13;50.91
61618;BME280;47518;51.776;9.370;2023-06-24T09:42:48;101170.19;;;25.43;50.84
61618;BME280;47518;51.776;9.370;2023-06-24T09:45:14;101165.41;;;25.72;50.41
61618;BME280;47518;51.776;9.370;2023-06-24T09:47:39;101161.75;;;25.54;50.24
61618;BME280;47518;51.776;9.370;2023-06-24T09:50:05;101167.50;;;25.31;49.38
61618;BME280;47518;51.776;9.370;2023-06-24T09:52:31;101159.63;;;24.94;49.87
61618;BME280;47518;51.776;9.370;2023-06-24T09:54:59;101157.66;;;25.40;49.42
61618;BME280;47518;51.776;9.370;2023-06-24T09:57:28;101155.44;;;25.42;48.60
61618;BME280;47518;51.776;9.370;2023-06-24T09:59:55;101158.16;;;25.20;50.44
61618;BME280;47518;51.776;9.370;2023-06-24T10:02:21;101153.94;;;25.18;49.62
61618;BME280;47518;51.776;9.370;2023-06-24T10:04:48;101150.13;;;25.41;49.89
61618;BME280;47518;51.776;9.370;2023-06-24T10:07:13;101147.50;;;25.34;49.88
61618;BME280;47518;51.776;9.370;2023-06-24T10:09:40;101145.94;;;25.38;49.81
61618;BME280;47518;51.776;9.370;2023-06-24T10:12:06;101138.81;;;24.97;46.77
61618;BME280;47518;51.776;9.370;2023-06-24T10:14:31;101141.28;;;24.65;50.63
61618;BME280;47518;51.776;9.370;2023-06-24T10:17:01;101132.66;;;24.78;47.27
61618;BME280;47518;51.776;9.370;2023-06-24T10:19:27;101136.75;;;24.59;46.47
61618;BME280;47518;51.776;9.370;2023-06-24T10:21:54;101127.00;;;24.73;48.84
61618;BME280;47518;51.776;9.370;2023-06-24T10:24:42;101134.28;;;24.62;47.61
61618;BME280;47518;51.776;9.370;2023-06-24T10:27:16;101127.44;;;24.53;48.14
61618;BME280;47518;51.776;9.370;2023-06-24T10:29:46;101126.69;;;25.37;48.31
61618;BME280;47518;51.776;9.370;2023-06-24T10:32:12;101127.75;;;25.52;46.43
61618;BME280;47518;51.776;9.370;2023-06-24T10:37:24;101127.31;;;25.77;46.03
61618;BME280;47518;51.776;9.370;2023-06-24T10:42:39;101114.53;;;26.03;46.53
61618;BME280;47518;51.776;9.370;2023-06-24T10:47:51;101094.47;;;26.01;46.77
61618;BME280;47518;51.776;9.370;2023-06-24T10:50:22;101104.88;;;26.33;44.76
61618;BME280;47518;51.776;9.370;2023-06-24T10:52:50;101099.63;;;26.14;44.45
61618;BME280;47518;51.776;9.370;2023-06-24T10:55:22;101107.72;;;26.16;47.10
61618;BME280;47518;51.776;9.370;2023-06-24T10:57:47;101104.06;;;26.10;45.22
61618;BME280;47518;51.776;9.370;2023-06-24T11:00:13;101099.84;;;26.08;48.99
61618;BME280;47518;51.776;9.370;2023-06-24T11:02:39;101100.38;;;26.86;45.42
61618;BME280;47518;51.776;9.370;2023-06-24T11:05:05;101092.03;;;27.60;48.29
61618;BME280;47518;51.776;9.370;2023-06-24T11:07:32;101096.66;;;27.81;44.93
61618;BME280;47518;51.776;9.370;2023-06-24T11:10:03;101098.38;;;27.45;43.86
61618;BME280;47518;51.776;9.370;2023-06-24T11:12:31;101088.34;;;27.54;44.49
61618;BME280;47518;51.776;9.370;2023-06-24T11:14:57;101081.22;;;27.74;43.07
61618;BME280;47518;51.776;9.370;2023-06-24T11:17:24;101086.88;;;27.42;42.95
61618;BME280;47518;51.776;9.370;2023-06-24T11:19:49;101084.16;;;28.09;41.62
61618;BME280;47518;51.776;9.370;2023-06-24T11:22:15;101084.97;;;27.95;44.88
61618;BME280;47518;51.776;9.370;2023-06-24T11:24:40;101081.84;;;27.81;42.61
61618;BME280;47518;51.776;9.370;2023-06-24T11:27:07;101078.13;;;27.23;46.56
61618;BME280;47518;51.776;9.370;2023-06-24T11:29:33;101078.53;;;27.04;46.48
61618;BME280;47518;51.776;9.370;2023-06-24T11:32:01;101073.13;;;26.93;48.52
61618;BME280;47518;51.776;9.370;2023-06-24T11:34:27;101074.31;;;26.70;44.49
61618;BME280;47518;51.776;9.370;2023-06-24T11:36:52;101074.22;;;26.60;45.42
61618;BME280;47518;51.776;9.370;2023-06-24T11:39:26;101069.19;;;26.57;45.34
61618;BME280;47518;51.776;9.370;2023-06-24T11:41:53;101065.66;;;26.66;47.64
61618;BME280;47518;51.776;9.370;2023-06-24T11:44:21;101062.47;;;26.53;47.86
61618;BME280;47518;51.776;9.370;2023-06-24T11:46:47;101066.69;;;26.60;48.45
61618;BME280;47518;51.776;9.370;2023-06-24T11:49:13;101063.97;;;26.38;46.42
61618;BME280;47518;51.776;9.370;2023-06-24T11:51:46;101060.41;;;26.43;48.79
61618;BME280;47518;51.776;9.370;2023-06-24T11:54:14;101051.25;;;26.48;48.10
61618;BME280;47518;51.776;9.370;2023-06-24T11:56:42;101050.06;;;26.70;46.71
61618;BME280;47518;51.776;9.370;2023-06-24T11:59:20;101043.91;;;26.68;45.92
61618;BME280;47518;51.776;9.370;2023-06-24T12:01:53;101049.44;;;26.09;45.81
61618;BME280;47518;51.776;9.370;2023-06-24T12:04:19;101052.41;;;26.03;45.29
61618;BME280;47518;51.776;9.370;2023-06-24T12:06:44;101047.28;;;26.16;45.57
61618;BME280;47518;51.776;9.370;2023-06-24T12:09:11;101043.78;;;26.04;47.13
61618;BME280;47518;51.776;9.370;2023-06-24T12:11:37;101039.34;;;26.30;47.13
61618;BME280;47518;51.776;9.370;2023-06-24T12:14:05;101030.50;;;26.65;45.21
61618;BME280;47518;51.776;9.370;2023-06-24T12:16:31;101035.50;;;26.63;47.20
61618;BME280;47518;51.776;9.370;2023-06-24T12:18:56;101031.75;;;26.85;46.21
61618;BME280;47518;51.776;9.370;2023-06-24T12:21:21;101025.56;;;26.45;46.45
61618;BME280;47518;51.776;9.370;2023-06-24T12:23:47;101029.09;;;26.63;45.41
61618;BME280;47518;51.776;9.370;2023-06-24T12:26:12;101031.25;;;25.80;44.62
61618;BME280;47518;51.776;9.370;2023-06-24T12:28:38;101029.56;;;25.79;46.36
61618;BME280;47518;51.776;9.370;2023-06-24T12:31:04;101030.91;;;25.98;46.07
61618;BME280;47518;51.776;9.370;2023-06-24T12:33:30;101024.34;;;26.09;47.41
61618;BME280;47518;51.776;9.370;2023-06-24T12:35:56;101027.19;;;26.14;47.98
61618;BME280;47518;51.776;9.370;2023-06-24T12:38:22;101020.28;;;26.44;45.89
61618;BME280;47518;51.776;9.370;2023-06-24T12:40:47;101012.38;;;26.68;46.04
61618;BME280;47518;51.776;9.370;2023-06-24T12:43:13;101014.28;;;26.62;45.08
61618;BME280;47518;51.776;9.370;2023-06-24T12:45:39;101017.13;;;26.67;45.51
61618;BME280;47518;51.776;9.370;2023-06-24T12:48:04;101009.06;;;27.08;45.66
61618;BME280;47518;51.776;9.370;2023-06-24T12:50:30;101012.25;;;27.22;44.52
61618;BME280;47518;51.776;9.370;2023-06-24T12:52:57;101008.69;;;27.37;44.12
61618;BME280;47518;51.776;9.370;2023-06-24T12:55:22;101005.84;;;27.31;42.06
61618;BME280;47518;51.776;9.370;2023-06-24T12:57:48;100997.50;;;26.57;43.22
61618;BME280;47518;51.776;9.370;2023-06-24T13:00:14;101004.25;;;26.98;43.04
61618;BME280;47518;51.776;9.370;2023-06-24T13:02:40;101008.84;;;26.78;44.10
61618;BME280;47518;51.776;9.370;2023-06-24T13:05:06;101011.50;;;26.62;45.41
61618;BME280;47518;51.776;9.370;2023-06-24T13:07:31;101013.59;;;26.45;42.72
61618;BME280;47518;51.776;9.370;2023-06-24T13:09:57;101011.00;;;27.02;45.41
61618;BME280;47518;51.776;9.370;2023-06-24T13:12:22;101001.91;;;27.22;43.51
61618;BME280;47518;51.776;9.370;2023-06-24T13:14:48;101014.06;;;27.48;41.49
61618;BME280;47518;51.776;9.370;2023-06-24T13:17:13;101007.34;;;27.44;42.42
61618;BME280;47518;51.776;9.370;2023-06-24T13:19:38;101001.44;;;27.41;42.39
61618;BME280;47518;51.776;9.370;2023-06-24T13:22:04;101005.31;;;27.92;41.08
61618;BME280;47518;51.776;9.370;2023-06-24T13:24:29;101008.66;;;27.99;41.56